Time;durP1;ratioP1;P1;durP2;ratioP2;P2;SDS_P1;SDS_P2;PMS_P1;PMS_P2;Temp;Humidity;BMP_temperature;BMP_pressure;BME280_temperature;BME280_humidity;BME280_pressure;Samples;Min_cycle;Max_cycle;Signal;HPM_P1;HPM_P2
2022/11/18 00:01:46;;;;;;;2.17;1.10;;;10.80;55.60;;;;;;5008970;28;20213;-67
2022/11/18 00:04:12;;;;;;;2.47;1.40;;;10.80;99.90;;;;;;5009939;28;20411;-67
2022/11/18 00:06:38;;;;;;;2.40;1.77;;;10.70;99.90;;;;;;5009489;28;20427;-67
2022/11/18 00:09:03;;;;;;;1.33;1.10;;;10.60;99.90;;;;;;5010367;28;20180;-66
2022/11/18 00:14:23;;;;;;;1.57;1.10;;;10.50;1.00;;;;;;5010215;28;20172;-66
2022/11/18 00:16:50;;;;;;;4.43;1.13;;;10.30;1.00;;;;;;5011939;28;20454;-65
2022/11/18 00:19:17;;;;;;;2.30;1.33;;;10.10;1.00;;;;;;5014128;28;20792;-68
2022/11/18 00:21:42;;;;;;;1.97;1.07;;;10.20;1.00;;;;;;5012685;28;20407;-68
2022/11/18 00:24:08;;;;;;;8.47;1.50;;;10.20;1.00;;;;;;5014022;28;20409;-68
2022/11/18 00:26:35;;;;;;;2.77;1.20;;;10.20;1.00;;;;;;5013493;28;20276;-68
2022/11/18 00:29:01;;;;;;;1.57;1.03;;;10.10;1.00;;;;;;5013492;28;20191;-68
2022/11/18 00:31:27;;;;;;;2.27;1.20;;;10.30;1.00;;;;;;5012615;28;21015;-67
2022/11/18 00:33:53;;;;;;;2.10;1.40;;;10.30;1.00;;;;;;5013610;28;20939;-66
2022/11/18 00:36:18;;;;;;;2.10;1.30;;;10.50;1.00;;;;;;5012802;28;20462;-67
2022/11/18 00:38:44;;;;;;;3.00;1.30;;;10.40;1.00;;;;;;5013325;28;20255;-67
2022/11/18 00:41:12;;;;;;;2.00;1.60;;;10.30;1.00;;;;;;5012280;28;20532;-67
2022/11/18 00:43:38;;;;;;;2.73;1.30;;;10.20;1.00;;;;;;5013286;28;20176;-67
2022/11/18 00:46:06;;;;;;;2.00;1.23;;;10.30;1.00;;;;;;5013087;28;20421;-66
2022/11/18 00:48:32;;;;;;;1.47;1.00;;;10.40;1.00;;;;;;5013298;28;20588;-68
2022/11/18 00:51:10;;;;;;;1.57;1.00;;;10.30;1.00;;;;;;5012412;28;20398;-66
2022/11/18 00:53:36;;;;;;;1.20;1.00;;;10.30;1.00;;;;;;5013054;28;20490;-68
2022/11/18 00:56:01;;;;;;;1.30;1.10;;;10.40;1.00;;;;;;5013162;28;20991;-68
2022/11/18 00:58:28;;;;;;;3.23;1.30;;;10.40;1.00;;;;;;5012897;28;20744;-67
2022/11/18 01:00:54;;;;;;;1.30;1.10;;;10.30;1.00;;;;;;5012094;28;20238;-67
2022/11/18 01:03:20;;;;;;;3.87;1.27;;;10.20;1.00;;;;;;5013165;28;20447;-67
2022/11/18 01:05:46;;;;;;;2.70;1.37;;;10.00;1.00;;;;;;5012915;28;20189;-67
2022/11/18 01:08:13;;;;;;;2.80;1.50;;;10.00;1.00;;;;;;5012486;28;20172;-66
2022/11/18 01:10:40;;;;;;;2.63;1.70;;;9.80;1.00;;;;;;5011981;28;20419;-68
2022/11/18 01:13:19;;;;;;;2.20;1.37;;;9.80;1.00;;;;;;5012883;28;20454;-68
2022/11/18 01:15:50;;;;;;;2.30;2.00;;;9.80;1.00;;;;;;5012707;28;20505;-67
2022/11/18 01:18:18;;;;;;;6.33;1.93;;;10.00;1.00;;;;;;5012842;28;20407;-67
2022/11/18 01:20:45;;;;;;;2.00;1.60;;;10.00;1.00;;;;;;5011808;28;20455;-67
2022/11/18 01:23:12;;;;;;;3.97;2.07;;;9.90;1.00;;;;;;5012536;28;20407;-67
2022/11/18 01:25:39;;;;;;;2.97;1.63;;;10.00;1.00;;;;;;5013609;28;20960;-66
2022/11/18 01:28:05;;;;;;;3.00;1.73;;;10.10;1.00;;;;;;5015062;28;20407;-68
2022/11/18 01:30:36;;;;;;;2.80;2.17;;;10.00;1.00;;;;;;5019886;28;20412;-67
2022/11/18 01:33:03;;;;;;;3.27;2.10;;;10.10;1.00;;;;;;5026302;28;20164;-68
2022/11/18 01:35:40;;;;;;;3.30;1.90;;;10.30;1.00;;;;;;5046181;23;20479;-65
2022/11/18 01:38:07;;;;;;;2.33;1.67;;;10.40;1.00;;;;;;5011271;28;20883;-65
2022/11/18 01:40:33;;;;;;;2.07;1.67;;;10.50;1.00;;;;;;5010741;28;20455;-65
2022/11/18 01:43:00;;;;;;;2.20;1.60;;;10.50;1.00;;;;;;5011373;28;20787;-65
2022/11/18 01:45:37;;;;;;;2.00;1.60;;;10.50;1.00;;;;;;5011682;28;20465;-64
2022/11/18 01:48:19;;;;;;;4.67;2.10;;;10.60;1.00;;;;;;5011911;28;20439;-64
2022/11/18 01:51:04;;;;;;;4.37;1.60;;;10.40;1.00;;;;;;5010613;28;20407;-64
2022/11/18 01:53:36;;;;;;;2.57;1.80;;;10.30;1.00;;;;;;5011174;28;20769;-65
2022/11/18 01:56:12;;;;;;;2.60;1.60;;;10.30;1.00;;;;;;5011294;28;20435;-65
2022/11/18 01:58:47;;;;;;;2.37;1.80;;;10.30;1.00;;;;;;5011723;28;20879;-65
2022/11/18 02:01:13;;;;;;;2.10;1.90;;;10.30;1.00;;;;;;5012592;28;20414;-65
2022/11/18 02:03:39;;;;;;;1.70;1.50;;;10.30;1.00;;;;;;5011295;28;20412;-65
2022/11/18 02:06:07;;;;;;;3.37;1.77;;;10.40;1.00;;;;;;5011268;28;20230;-66
2022/11/18 02:08:36;;;;;;;2.30;1.90;;;10.50;1.00;;;;;;5011231;28;20214;-65
2022/11/18 02:11:02;;;;;;;2.50;1.50;;;10.40;1.00;;;;;;5010465;28;20474;-65
2022/11/18 02:13:31;;;;;;;1.97;1.77;;;10.30;1.00;;;;;;5010769;28;20407;-65
2022/11/18 02:16:18;;;;;;;1.53;1.40;;;10.10;1.00;;;;;;5011059;28;20427;-65
2022/11/18 02:18:53;;;;;;;2.17;1.83;;;10.10;1.00;;;;;;5008511;28;20838;-65
2022/11/18 02:21:31;;;;;;;5.27;1.53;;;10.10;1.00;;;;;;5003754;28;20915;-66
2022/11/18 02:24:18;;;;;;;4.80;1.30;;;10.30;1.00;;;;;;5009690;28;21003;-65
2022/11/18 02:27:19;;;;;;;1.83;1.60;;;10.50;1.00;;;;;;4991035;28;20431;-66
2022/11/18 02:30:07;;;;;;;5.43;1.90;;;10.60;1.00;;;;;;4991652;28;20802;-65
2022/11/18 02:32:51;;;;;;;10.23;1.70;;;10.60;1.00;;;;;;5001510;28;20489;-66
2022/11/18 02:35:29;;;;;;;4.27;1.70;;;10.60;1.00;;;;;;5006034;28;20406;-65
2022/11/18 02:38:41;;;;;;;1.70;1.60;;;10.60;1.00;;;;;;5010262;28;20402;-65
2022/11/18 02:41:18;;;;;;;3.80;1.87;;;10.60;1.00;;;;;;5007286;28;20439;-65
2022/11/18 02:43:48;;;;;;;2.67;1.30;;;10.60;1.00;;;;;;5010569;28;20511;-65
2022/11/18 02:46:19;;;;;;;2.27;1.50;;;10.30;1.00;;;;;;5010018;28;20425;-65
2022/11/18 02:48:49;;;;;;;2.13;1.40;;;10.10;1.00;;;;;;5010687;28;20487;-66
2022/11/18 02:51:20;;;;;;;2.60;1.77;;;10.20;1.00;;;;;;4990599;28;20400;-64
2022/11/18 02:53:48;;;;;;;1.73;1.20;;;10.30;1.00;;;;;;4990548;28;20403;-64
2022/11/18 02:56:16;;;;;;;2.83;1.43;;;10.40;1.00;;;;;;4990570;28;20501;-66
2022/11/18 02:58:41;;;;;;;2.20;1.60;;;10.30;1.00;;;;;;4990969;28;20408;-64
2022/11/18 03:01:19;;;;;;;1.50;1.40;;;10.20;1.00;;;;;;5011689;28;20417;-66
2022/11/18 03:03:45;;;;;;;3.27;1.90;;;10.10;1.00;;;;;;5028713;28;20184;-66
2022/11/18 03:06:32;;;;;;;3.80;1.60;;;10.00;1.00;;;;;;5029288;28;20426;-64
2022/11/18 03:09:11;;;;;;;2.20;2.00;;;10.10;1.00;;;;;;5029639;28;20187;-65
2022/11/18 03:12:06;;;;;;;3.53;1.77;;;10.30;1.00;;;;;;5028637;28;20402;-65
2022/11/18 03:14:55;;;;;;;2.60;1.77;;;10.20;1.00;;;;;;5019871;28;20426;-65
2022/11/18 03:17:36;;;;;;;1.83;1.60;;;10.20;1.00;;;;;;5023955;28;20438;-65
2022/11/18 03:20:21;;;;;;;2.10;1.60;;;10.30;1.00;;;;;;5003351;28;20454;-65
2022/11/18 03:23:18;;;;;;;2.70;1.60;;;10.10;1.00;;;;;;5007342;28;20504;-65
2022/11/18 03:25:50;;;;;;;2.60;1.73;;;10.20;1.00;;;;;;4983241;28;20436;-65
2022/11/18 03:28:43;;;;;;;2.30;1.80;;;10.30;1.00;;;;;;4990135;28;20419;-65
2022/11/18 03:31:19;;;;;;;1.63;1.53;;;10.30;1.00;;;;;;4988282;28;20404;-65
2022/11/18 03:33:50;;;;;;;5.43;1.73;;;10.40;1.00;;;;;;4990369;28;20400;-65
2022/11/18 03:36:20;;;;;;;2.80;1.60;;;10.40;1.00;;;;;;4989501;28;20841;-64
2022/11/18 03:38:50;;;;;;;4.17;1.70;;;10.50;1.00;;;;;;4990131;28;20409;-64
2022/11/18 03:41:17;;;;;;;4.30;2.10;;;10.50;1.00;;;;;;4989003;28;20408;-65
2022/11/18 03:44:04;;;;;;;2.97;1.70;;;10.50;1.00;;;;;;4989524;28;20502;-64
2022/11/18 03:46:44;;;;;;;3.20;2.27;;;10.50;1.00;;;;;;4989810;28;20456;-65
2022/11/18 03:49:18;;;;;;;2.47;2.27;;;10.50;1.00;;;;;;4989920;28;20423;-64
2022/11/18 03:51:56;;;;;;;2.93;2.63;;;10.50;1.00;;;;;;5001115;28;20477;-65
2022/11/18 03:54:28;;;;;;;4.10;3.27;;;10.50;1.00;;;;;;5005364;28;20411;-65
2022/11/18 03:56:59;;;;;;;3.17;2.90;;;10.50;1.00;;;;;;5009039;28;20510;-65
2022/11/18 03:59:33;;;;;;;3.40;3.10;;;10.50;1.00;;;;;;5009163;28;20482;-65
2022/11/18 04:02:22;;;;;;;4.10;3.20;;;10.40;1.00;;;;;;5026617;28;20411;-64
2022/11/18 04:04:50;;;;;;;5.10;3.10;;;10.50;1.00;;;;;;5028842;28;20828;-64
2022/11/18 04:07:31;;;;;;;5.53;3.50;;;10.40;1.00;;;;;;5028710;28;20921;-64
2022/11/18 04:10:11;;;;;;;3.57;3.27;;;10.40;1.00;;;;;;5014332;28;20409;-66
2022/11/18 04:13:29;;;;;;;3.80;3.50;;;10.30;1.00;;;;;;5009009;28;20415;-66
2022/11/18 04:15:55;;;;;;;4.70;3.10;;;10.40;1.00;;;;;;4995684;28;20526;-64
2022/11/18 04:18:20;;;;;;;3.83;2.70;;;10.40;1.00;;;;;;5009477;28;20435;-64
2022/11/18 04:20:46;;;;;;;3.07;2.77;;;10.50;1.00;;;;;;5008450;28;20451;-64
2022/11/18 04:23:12;;;;;;;3.03;2.60;;;10.40;1.00;;;;;;5008998;28;20175;-65
2022/11/18 04:25:37;;;;;;;4.30;2.60;;;10.30;1.00;;;;;;5009282;28;20192;-64
2022/11/18 04:28:04;;;;;;;9.37;2.67;;;10.30;1.00;;;;;;5009107;28;20200;-64
2022/11/18 04:30:30;;;;;;;11.43;2.60;;;10.40;1.00;;;;;;5006932;28;20180;-64
2022/11/18 04:32:56;;;;;;;2.37;1.70;;;10.40;1.00;;;;;;5001950;28;20473;-64
2022/11/18 04:35:22;;;;;;;2.13;1.70;;;10.40;1.00;;;;;;5008901;28;20427;-64
2022/11/18 04:37:47;;;;;;;2.73;1.60;;;10.30;1.00;;;;;;5008692;28;20760;-64
2022/11/18 04:40:13;;;;;;;3.40;2.03;;;10.30;1.00;;;;;;5001730;28;20204;-65
2022/11/18 04:42:39;;;;;;;2.33;1.43;;;10.30;1.00;;;;;;5007095;28;20644;-64
2022/11/18 04:45:05;;;;;;;1.90;1.37;;;10.30;1.00;;;;;;5009092;28;20176;-64
2022/11/18 04:47:31;;;;;;;2.60;1.60;;;10.20;1.00;;;;;;5009110;28;20157;-63
2022/11/18 04:49:56;;;;;;;3.27;2.27;;;10.20;1.00;;;;;;5008225;28;20494;-64
2022/11/18 04:52:22;;;;;;;1.67;1.43;;;10.20;1.00;;;;;;5007587;28;20172;-64
2022/11/18 04:54:48;;;;;;;1.70;1.30;;;10.10;1.00;;;;;;5008862;28;20169;-65
2022/11/18 04:57:13;;;;;;;3.90;1.40;;;10.20;1.00;;;;;;5008652;28;20685;-64
2022/11/18 04:59:39;;;;;;;1.47;0.90;;;10.20;1.00;;;;;;5006687;28;20262;-64
2022/11/18 05:02:05;;;;;;;1.53;1.10;;;10.10;99.90;;;;;;5002540;28;20173;-66
2022/11/18 05:04:33;;;;;;;1.40;0.87;;;10.10;1.00;;;;;;5009351;28;20172;-66
2022/11/18 05:07:00;;;;;;;4.90;0.90;;;10.10;13.70;;;;;;5010406;28;20184;-67
2022/11/18 05:09:26;;;;;;;2.53;1.30;;;10.00;1.00;;;;;;5012344;28;20431;-66
2022/11/18 05:14:37;;;;;;;1.10;0.87;;;10.10;1.00;;;;;;5010891;28;20410;-66
2022/11/18 05:17:05;;;;;;;1.83;1.00;;;10.00;1.00;;;;;;5012169;28;20439;-66
2022/11/18 05:19:31;;;;;;;2.17;1.10;;;10.00;1.00;;;;;;5012162;28;20669;-66
2022/11/18 05:21:57;;;;;;;2.53;1.10;;;10.10;1.00;;;;;;5009997;28;20527;-66
2022/11/18 05:24:23;;;;;;;3.03;0.90;;;10.00;1.00;;;;;;5004147;28;20189;-66
2022/11/18 05:26:52;;;;;;;4.70;0.90;;;10.00;1.00;;;;;;5011589;28;20458;-66
2022/11/18 05:29:19;;;;;;;2.83;0.90;;;10.00;1.00;;;;;;5012004;28;20510;-66
2022/11/18 05:31:46;;;;;;;2.80;1.20;;;10.00;1.00;;;;;;5009844;28;20466;-64
2022/11/18 05:34:12;;;;;;;1.37;1.00;;;10.00;1.00;;;;;;5004674;28;20419;-64
2022/11/18 05:36:38;;;;;;;1.20;0.80;;;10.00;1.00;;;;;;5011182;28;20450;-65
2022/11/18 05:39:04;;;;;;;2.50;1.00;;;10.00;1.00;;;;;;4992624;28;20920;-64
2022/11/18 05:44:14;;;;;;;1.50;1.23;;;10.00;99.90;;;;;;4992606;28;20658;-65
2022/11/18 05:46:40;;;;;;;2.10;1.17;;;9.90;99.90;;;;;;4992021;28;20523;-64
2022/11/18 05:49:06;;;;;;;3.17;1.10;;;9.80;1.00;;;;;;4998678;28;20440;-65
2022/11/18 05:51:32;;;;;;;6.50;1.40;;;9.90;1.00;;;;;;5001902;28;20947;-65
2022/11/18 05:54:01;;;;;;;2.30;1.30;;;10.00;1.00;;;;;;5009158;28;20914;-65
2022/11/18 05:56:37;;;;;;;2.40;1.00;;;10.00;1.00;;;;;;5011430;28;20438;-66
2022/11/18 05:59:04;;;;;;;1.83;1.07;;;10.00;1.00;;;;;;5011857;28;20417;-68
2022/11/18 06:01:38;;;;;;;1.50;1.10;;;10.00;1.00;;;;;;5011601;28;20438;-67
2022/11/18 06:04:13;;;;;;;4.80;1.47;;;10.00;1.00;;;;;;5010940;28;20426;-67
2022/11/18 06:06:39;;;;;;;7.53;2.63;;;9.90;1.00;;;;;;5003873;28;20446;-66
2022/11/18 06:09:07;;;;;;;4.90;1.60;;;9.90;1.00;;;;;;5007005;28;20423;-66
2022/11/18 06:11:39;;;;;;;20.33;2.53;;;9.80;1.00;;;;;;5016013;28;20188;-66
2022/11/18 06:14:07;;;;;;;3.40;1.30;;;9.90;1.00;;;;;;5010218;28;20427;-66
2022/11/18 06:16:34;;;;;;;4.50;1.40;;;9.90;1.00;;;;;;5011678;28;20958;-67
2022/11/18 06:19:02;;;;;;;9.50;1.73;;;9.90;1.00;;;;;;5009576;28;20427;-67
2022/11/18 06:21:29;;;;;;;10.57;2.17;;;9.90;1.00;;;;;;5009598;28;20415;-66
2022/11/18 06:23:55;;;;;;;2.77;0.80;;;10.00;99.90;;;;;;5011152;28;20512;-69
2022/11/18 06:26:21;;;;;;;12.17;1.63;;;9.90;99.90;;;;;;5011033;28;20435;-68
2022/11/18 06:28:47;;;;;;;4.50;1.03;;;9.90;99.90;;;;;;5011118;28;20569;-67
2022/11/18 06:31:15;;;;;;;1.37;0.87;;;9.80;1.00;;;;;;5010277;28;20184;-69
2022/11/18 06:33:41;;;;;;;2.53;0.90;;;9.90;99.90;;;;;;5005927;28;20494;-68
2022/11/18 06:36:07;;;;;;;1.20;0.70;;;9.80;99.90;;;;;;5006153;28;20471;-67
2022/11/18 06:38:33;;;;;;;5.70;1.43;;;9.70;99.90;;;;;;5010943;28;20419;-67
2022/11/18 06:41:01;;;;;;;2.40;0.80;;;9.70;1.00;;;;;;5009924;28;20459;-67
2022/11/18 06:43:42;;;;;;;7.80;1.37;;;9.70;99.90;;;;;;5010158;28;20200;-66
2022/11/18 06:49:00;;;;;;;2.10;0.90;;;9.60;1.00;;;;;;5009381;28;20386;-67
2022/11/18 06:51:26;;;;;;;2.20;1.00;;;9.60;1.00;;;;;;5006012;28;20512;-66
2022/11/18 06:53:52;;;;;;;3.03;0.83;;;9.60;1.00;;;;;;4999395;28;20486;-65
2022/11/18 06:56:20;;;;;;;3.07;0.87;;;9.50;1.00;;;;;;5008021;28;20455;-67
2022/11/18 06:58:46;;;;;;;2.07;1.10;;;9.50;1.00;;;;;;5009700;28;20168;-67
2022/11/18 07:01:15;;;;;;;1.80;1.10;;;9.60;55.40;;;;;;5010459;28;20545;-67
2022/11/18 07:03:42;;;;;;;2.23;0.93;;;9.60;1.00;;;;;;5010044;28;20797;-67
2022/11/18 07:06:09;;;;;;;3.80;1.40;;;9.60;99.90;;;;;;5009709;28;21007;-67
2022/11/18 07:08:36;;;;;;;2.97;1.60;;;9.50;99.90;;;;;;5009172;28;20855;-67
2022/11/18 07:11:04;;;;;;;1.50;1.20;;;9.60;99.90;;;;;;5009674;28;20431;-67
2022/11/18 07:13:31;;;;;;;7.87;1.70;;;9.60;99.90;;;;;;5010579;28;20499;-67
2022/11/18 07:16:03;;;;;;;14.63;2.47;;;9.60;99.90;;;;;;5008644;28;20815;-68
2022/11/18 07:18:30;;;;;;;1.33;1.13;;;9.60;99.90;;;;;;5001109;28;20420;-66
2022/11/18 07:20:56;;;;;;;8.13;2.33;;;9.60;99.90;;;;;;5007399;28;20542;-67
2022/11/18 07:23:22;;;;;;;12.90;2.43;;;9.60;99.90;;;;;;5005754;28;20955;-68
2022/11/18 07:25:47;;;;;;;6.70;2.00;;;9.70;99.90;;;;;;5004827;28;20222;-67
2022/11/18 07:28:13;;;;;;;4.37;2.10;;;9.60;99.90;;;;;;5009022;28;20672;-67
2022/11/18 07:30:38;;;;;;;2.30;1.53;;;9.70;99.90;;;;;;4998292;28;20689;-67
2022/11/18 07:33:04;;;;;;;4.60;1.50;;;9.80;98.10;;;;;;5003557;28;20667;-67
2022/11/18 07:35:30;;;;;;;2.13;0.93;;;9.80;1.00;;;;;;5006385;28;20553;-67
2022/11/18 07:37:55;;;;;;;4.60;1.60;;;9.80;1.00;;;;;;5033430;23;20241;-63
2022/11/18 07:40:21;;;;;;;2.03;1.30;;;9.90;1.00;;;;;;5010274;28;20232;-65
2022/11/18 07:42:47;;;;;;;25.70;3.67;;;9.80;1.00;;;;;;5007708;28;20232;-61
2022/11/18 07:45:12;;;;;;;5.50;2.10;;;9.80;1.00;;;;;;4999262;28;20626;-65
2022/11/18 07:47:38;;;;;;;6.60;1.93;;;9.80;1.00;;;;;;4998110;28;20279;-62
2022/11/18 07:50:05;;;;;;;2.90;1.30;;;9.90;1.00;;;;;;5005675;28;20184;-63
2022/11/18 07:52:30;;;;;;;4.83;1.80;;;9.90;1.00;;;;;;4999222;28;20424;-64
2022/11/18 07:54:56;;;;;;;2.40;1.10;;;9.90;1.00;;;;;;5009787;28;20515;-63
2022/11/18 07:57:22;;;;;;;1.87;1.03;;;9.90;1.00;;;;;;5009624;28;20196;-64
2022/11/18 07:59:47;;;;;;;2.80;1.50;;;9.90;1.00;;;;;;5006450;28;20215;-63
2022/11/18 08:02:13;;;;;;;4.20;1.60;;;9.90;1.00;;;;;;5005959;28;20272;-62
2022/11/18 08:04:39;;;;;;;21.67;3.57;;;9.90;1.00;;;;;;5000163;28;20264;-62
2022/11/18 08:07:04;;;;;;;27.17;4.70;;;9.90;1.00;;;;;;4999354;28;20200;-63
2022/11/18 08:09:30;;;;;;;46.63;6.50;;;10.00;1.00;;;;;;5001693;28;20688;-62
2022/11/18 08:11:56;;;;;;;15.20;2.50;;;9.90;1.00;;;;;;5005689;28;20196;-62
2022/11/18 08:14:23;;;;;;;11.17;1.93;;;9.90;1.00;;;;;;5009358;28;20183;-63
2022/11/18 08:16:49;;;;;;;6.97;1.67;;;10.00;1.00;;;;;;4998854;28;20176;-65
2022/11/18 08:19:15;;;;;;;6.47;2.10;;;10.10;1.00;;;;;;5009646;28;20458;-66
2022/11/18 08:21:40;;;;;;;4.10;1.60;;;10.10;1.00;;;;;;5002899;28;20767;-63
2022/11/18 08:24:08;;;;;;;1.87;1.30;;;10.10;1.00;;;;;;5001332;28;20229;-61
2022/11/18 08:26:34;;;;;;;5.57;1.67;;;10.20;22.00;;;;;;5008611;28;20176;-63
2022/11/18 08:28:59;;;;;;;4.90;1.43;;;10.20;1.00;;;;;;4998600;28;20443;-64
2022/11/18 08:31:27;;;;;;;2.50;1.67;;;10.30;89.00;;;;;;4995128;28;20224;-65
2022/11/18 08:33:55;;;;;;;6.30;1.17;;;10.20;1.00;;;;;;4998421;28;20665;-66
2022/11/18 08:36:23;;;;;;;6.67;1.40;;;10.10;1.00;;;;;;4998554;28;20427;-66
2022/11/18 08:38:49;;;;;;;2.30;1.20;;;10.10;99.90;;;;;;5004167;28;20491;-64
2022/11/18 08:41:19;;;;;;;4.00;1.27;;;10.10;99.90;;;;;;5006085;28;20490;-65
2022/11/18 08:43:44;;;;;;;3.33;1.50;;;10.10;99.90;;;;;;5002577;28;20177;-66
2022/11/18 08:46:10;;;;;;;2.40;1.60;;;10.20;1.00;;;;;;5004525;28;20438;-65
2022/11/18 08:48:36;;;;;;;6.60;2.73;;;10.40;99.90;;;;;;5003704;28;20189;-66
2022/11/18 08:51:02;;;;;;;11.20;3.53;;;10.50;1.00;;;;;;5008858;28;20322;-67
2022/11/18 08:53:27;;;;;;;10.53;3.43;;;10.60;99.90;;;;;;4996533;28;20180;-66
2022/11/18 08:55:57;;;;;;;15.80;4.13;;;10.60;99.90;;;;;;5012616;28;20532;-66
2022/11/18 08:58:24;;;;;;;11.93;3.53;;;10.70;99.90;;;;;;4998200;28;20508;-64
2022/11/18 09:00:49;;;;;;;7.60;4.00;;;10.70;99.90;;;;;;5010779;28;20581;-64
2022/11/18 09:03:15;;;;;;;9.00;2.10;;;10.70;99.90;;;;;;5007518;28;20911;-64
2022/11/18 09:05:41;;;;;;;3.77;1.87;;;10.60;99.90;;;;;;5008031;28;20186;-64
2022/11/18 09:08:07;;;;;;;5.13;1.80;;;10.60;99.90;;;;;;5006803;28;20200;-64
2022/11/18 09:10:33;;;;;;;3.57;1.33;;;10.60;1.00;;;;;;5008306;28;20303;-66
2022/11/18 09:12:59;;;;;;;1.80;1.00;;;10.60;1.00;;;;;;5007062;28;20181;-66
2022/11/18 09:15:26;;;;;;;5.20;2.23;;;10.60;99.90;;;;;;5007222;28;20431;-65
2022/11/18 09:17:52;;;;;;;2.60;1.07;;;10.40;1.00;;;;;;5008544;28;20446;-66
2022/11/18 09:20:18;;;;;;;3.50;1.37;;;10.50;1.00;;;;;;5004476;28;20466;-64
2022/11/18 09:22:43;;;;;;;11.03;3.70;;;10.40;1.00;;;;;;5007489;28;20423;-65
2022/11/18 09:25:09;;;;;;;11.00;1.80;;;10.30;1.00;;;;;;5004838;28;20927;-64
2022/11/18 09:27:35;;;;;;;3.47;1.97;;;10.40;1.00;;;;;;5004382;28;20189;-65
2022/11/18 09:30:01;;;;;;;5.53;2.00;;;10.30;1.00;;;;;;5003738;28;20176;-65
2022/11/18 09:32:26;;;;;;;15.50;2.87;;;10.40;99.90;;;;;;5001790;28;20218;-66
2022/11/18 09:34:52;;;;;;;5.97;2.60;;;10.40;23.40;;;;;;5007925;28;20242;-67
2022/11/18 09:37:18;;;;;;;14.30;2.30;;;10.40;1.00;;;;;;5006863;28;20239;-65
2022/11/18 09:39:43;;;;;;;5.27;1.77;;;10.50;1.00;;;;;;5008394;28;20618;-65
2022/11/18 09:42:30;;;;;;;3.93;2.13;;;10.60;1.00;;;;;;5002100;28;21011;-66
2022/11/18 09:45:35;;;;;;;3.63;1.10;;;10.50;1.00;;;;;;5002620;28;20668;-66
2022/11/18 09:48:18;;;;;;;4.90;1.23;;;10.20;1.00;;;;;;4988211;28;20542;-66
2022/11/18 09:50:44;;;;;;;1.90;1.17;;;10.10;1.00;;;;;;5007477;28;20725;-68
2022/11/18 09:53:24;;;;;;;4.80;1.10;;;10.20;1.00;;;;;;5009528;28;20436;-64
2022/11/18 09:55:50;;;;;;;1.30;1.10;;;10.20;1.00;;;;;;5006271;28;20423;-66
2022/11/18 09:58:32;;;;;;;2.40;1.00;;;10.20;1.00;;;;;;5007445;28;20500;-65
2022/11/18 10:00:58;;;;;;;1.20;0.77;;;10.30;99.90;;;;;;5001053;28;20950;-64
2022/11/18 10:03:30;;;;;;;1.20;0.90;;;10.30;99.90;;;;;;5006771;28;20500;-64
2022/11/18 10:06:11;;;;;;;4.77;2.00;;;10.30;1.00;;;;;;5005647;28;20436;-66
2022/11/18 10:08:42;;;;;;;5.80;2.27;;;10.40;1.00;;;;;;5006835;28;20443;-63
2022/11/18 10:11:22;;;;;;;13.67;3.10;;;10.40;99.90;;;;;;5002063;28;20482;-67
2022/11/18 10:13:51;;;;;;;5.80;2.27;;;10.40;99.90;;;;;;5004768;28;20995;-67
2022/11/18 10:16:49;;;;;;;3.53;1.50;;;10.50;1.00;;;;;;5005998;28;20435;-67
2022/11/18 10:19:40;;;;;;;1.27;1.00;;;10.40;99.90;;;;;;5003593;28;20498;-67
2022/11/18 10:22:05;;;;;;;1.93;1.10;;;10.30;99.90;;;;;;5003924;28;21078;-67
2022/11/18 10:24:39;;;;;;;1.80;1.10;;;10.30;99.90;;;;;;5010127;28;20431;-67
2022/11/18 10:27:10;;;;;;;4.00;1.40;;;10.30;99.90;;;;;;5003911;28;20187;-66
2022/11/18 10:29:36;;;;;;;3.00;1.23;;;10.40;99.90;;;;;;4999624;28;20549;-67
2022/11/18 10:32:04;;;;;;;4.70;1.07;;;10.30;1.00;;;;;;5001390;28;20564;-67
2022/11/18 10:34:31;;;;;;;1.50;0.90;;;10.30;99.90;;;;;;5004096;28;20184;-67
2022/11/18 10:37:01;;;;;;;2.43;1.50;;;10.30;99.90;;;;;;5004120;28;20447;-68
2022/11/18 10:39:27;;;;;;;5.00;1.10;;;10.20;1.00;;;;;;5002846;28;20482;-68
2022/11/18 10:42:02;;;;;;;2.43;1.23;;;10.20;1.00;;;;;;5003977;28;20431;-68
2022/11/18 10:44:29;;;;;;;2.17;1.43;;;10.30;1.00;;;;;;5006692;28;20511;-68
2022/11/18 10:46:55;;;;;;;8.33;2.90;;;10.30;1.00;;;;;;5006041;28;20463;-68
2022/11/18 10:49:21;;;;;;;2.83;1.90;;;10.30;99.90;;;;;;5006334;28;20895;-67
2022/11/18 10:52:07;;;;;;;2.17;1.30;;;10.40;99.90;;;;;;5001847;28;20450;-68
2022/11/18 10:54:33;;;;;;;3.87;1.10;;;10.30;99.90;;;;;;5003061;28;20431;-67
2022/11/18 10:57:23;;;;;;;1.23;0.87;;;10.40;99.90;;;;;;4999280;28;20526;-67
2022/11/18 10:59:56;;;;;;;4.10;1.97;;;10.40;99.90;;;;;;4999958;28;20683;-67
2022/11/18 11:02:38;;;;;;;5.13;1.60;;;10.30;1.00;;;;;;5002551;28;20757;-67
2022/11/18 11:05:25;;;;;;;1.47;1.17;;;10.30;1.00;;;;;;5007422;28;20753;-68
2022/11/18 11:08:23;;;;;;;2.50;2.07;;;10.40;1.00;;;;;;4994896;28;20427;-67
2022/11/18 11:10:57;;;;;;;5.03;1.90;;;10.40;99.90;;;;;;4996090;28;21237;-67
2022/11/18 11:13:29;;;;;;;6.27;2.07;;;10.50;99.90;;;;;;5006648;28;20473;-69
2022/11/18 11:15:58;;;;;;;4.53;2.17;;;10.50;1.00;;;;;;4998622;28;20430;-67
2022/11/18 11:18:42;;;;;;;2.60;1.20;;;10.50;99.90;;;;;;5007916;28;20800;-67
2022/11/18 11:21:14;;;;;;;28.67;3.90;;;10.50;99.90;;;;;;5002129;28;20524;-66
2022/11/18 11:23:41;;;;;;;28.90;6.37;;;10.40;99.90;;;;;;5001575;28;20473;-68
2022/11/18 11:26:21;;;;;;;36.63;5.33;;;10.50;1.00;;;;;;4997872;28;20999;-67
2022/11/18 11:28:58;;;;;;;15.93;3.30;;;10.60;99.90;;;;;;4998835;28;20459;-68
2022/11/18 11:31:26;;;;;;;39.23;5.50;;;10.60;99.90;;;;;;5002242;28;20430;-67
2022/11/18 11:34:16;;;;;;;13.50;2.87;;;10.60;99.90;;;;;;5003622;28;20423;-67
2022/11/18 11:36:57;;;;;;;6.13;1.80;;;10.70;1.00;;;;;;5007934;28;20439;-68
2022/11/18 11:39:51;;;;;;;11.70;3.30;;;10.80;1.00;;;;;;5006139;28;20525;-68
2022/11/18 11:42:33;;;;;;;5.67;2.73;;;10.90;1.00;;;;;;5002481;28;20431;-68
2022/11/18 11:45:17;;;;;;;5.97;2.87;;;10.90;1.00;;;;;;5003834;28;20423;-68
2022/11/18 11:48:15;;;;;;;6.27;2.50;;;11.00;1.00;;;;;;5004827;28;20538;-66
2022/11/18 11:50:58;;;;;;;4.80;1.77;;;10.90;1.00;;;;;;4970525;28;20536;-66
2022/11/18 11:54:01;;;;;;;4.77;2.10;;;11.00;99.90;;;;;;5007815;28;20439;-67
2022/11/18 11:56:52;;;;;;;11.17;2.50;;;11.20;49.40;;;;;;5008573;28;20434;-64
2022/11/18 11:59:31;;;;;;;4.67;2.10;;;11.40;99.90;;;;;;5003531;28;20522;-66
2022/11/18 12:02:26;;;;;;;3.50;1.40;;;11.40;99.90;;;;;;5000962;28;20545;-64
2022/11/18 12:04:55;;;;;;;17.87;2.50;;;11.40;1.00;;;;;;4983011;28;20571;-64
2022/11/18 12:07:30;;;;;;;11.93;2.63;;;11.40;1.00;;;;;;4998876;28;20466;-65
2022/11/18 12:10:23;;;;;;;13.47;2.40;;;11.60;1.00;;;;;;4999848;28;20907;-64
2022/11/18 12:13:24;;;;;;;5.63;1.30;;;11.60;99.90;;;;;;5007341;28;20515;-66
2022/11/18 12:16:26;;;;;;;3.53;1.47;;;11.60;1.00;;;;;;5002355;28;20453;-64
2022/11/18 12:19:20;;;;;;;1.70;0.83;;;11.60;1.00;;;;;;5008754;28;20457;-66
2022/11/18 12:21:46;;;;;;;4.83;0.90;;;11.60;1.00;;;;;;5010286;28;20426;-65
2022/11/18 12:24:37;;;;;;;1.67;1.13;;;11.60;1.00;;;;;;5005205;28;20739;-64
2022/11/18 12:27:33;;;;;;;2.00;1.30;;;11.50;1.00;;;;;;5003324;28;20242;-65
2022/11/18 12:30:02;;;;;;;1.40;1.10;;;11.40;1.00;;;;;;5011690;28;20525;-65
2022/11/18 12:32:41;;;;;;;4.63;1.30;;;11.30;1.00;;;;;;5006692;28;20430;-65
2022/11/18 12:35:12;;;;;;;1.90;0.93;;;11.30;1.00;;;;;;5008889;28;20434;-65
2022/11/18 12:37:43;;;;;;;2.23;1.40;;;11.40;1.00;;;;;;5005843;28;20474;-64
2022/11/18 12:40:30;;;;;;;2.73;1.67;;;11.40;1.00;;;;;;5006003;28;20462;-66
2022/11/18 12:45:40;;;;;;;2.73;2.07;;;11.50;1.00;;;;;;5006507;28;20501;-65
2022/11/18 12:48:38;;;;;;;2.37;1.80;;;11.40;99.90;;;;;;5011622;28;20815;-64
2022/11/18 12:51:38;;;;;;;2.70;1.17;;;11.20;99.90;;;;;;4999275;28;20185;-64
2022/11/18 12:54:20;;;;;;;2.10;1.20;;;11.30;1.00;;;;;;5003090;28;20434;-65
2022/11/18 12:56:48;;;;;;;6.87;1.10;;;11.40;1.00;;;;;;5007611;28;20585;-66
2022/11/18 12:59:14;;;;;;;2.60;1.70;;;11.50;1.00;;;;;;5008787;28;20441;-66
2022/11/18 13:01:39;;;;;;;3.73;1.70;;;11.50;1.00;;;;;;5005793;28;20503;-62
2022/11/18 13:04:14;;;;;;;2.77;1.33;;;11.50;1.00;;;;;;5004577;28;20543;-65
2022/11/18 13:06:41;;;;;;;4.27;1.27;;;11.40;99.90;;;;;;5008984;28;21798;-62
2022/11/18 13:09:18;;;;;;;1.57;1.10;;;11.20;99.90;;;;;;5009743;28;20503;-64
2022/11/18 13:11:54;;;;;;;2.13;0.90;;;11.10;99.90;;;;;;5008826;28;21023;-64
2022/11/18 13:17:50;;;;;;;4.60;1.47;;;11.00;1.00;;;;;;5010602;28;20501;-65
2022/11/18 13:20:29;;;;;;;7.00;1.83;;;10.90;1.00;;;;;;5008107;28;20459;-64
2022/11/18 13:25:49;;;;;;;3.20;1.53;;;10.90;1.00;;;;;;5010220;28;20434;-66
2022/11/18 13:28:36;;;;;;;3.43;1.80;;;10.80;1.00;;;;;;5011614;28;20987;-66
2022/11/18 13:31:20;;;;;;;4.70;1.47;;;10.80;1.00;;;;;;5006887;28;20434;-67
2022/11/18 13:33:46;;;;;;;1.87;1.13;;;10.60;1.00;;;;;;5003540;28;20792;-67
2022/11/18 13:36:20;;;;;;;1.80;1.20;;;10.60;1.00;;;;;;5010651;28;20427;-67
2022/11/18 13:39:02;;;;;;;4.33;1.50;;;10.60;1.00;;;;;;5008321;28;20217;-67
2022/11/18 13:41:33;;;;;;;6.60;1.80;;;10.80;1.00;;;;;;5002526;28;20419;-67